Orienta, Oklahoma
Current Conditions -  °F | °C
As of 9:35 AM on Thursday 30 Oct 2014 (Local Time) from KJWG Reporting Station
Clear Clear  
Wind Chill: 58°   Ceiling: Unl
Heat Index: 58°   Visibility: 10mi
Dew Point: 47°   Wind: 7mph
Humidity: 66%   Direction: 310°NW
Pressure: 30.18"   Gusts: NA
Location:  36.2837°N, 98.6091°W
Report Text: KJWG 301435Z AUTO 31006KT 10SM CLR 14/08 A3018 RMK AO2 T01430081
Loading
Personal Weather Stations






























Interactive Weather Map
Tropical Storm Tracking
New forecast layout! Learn more

10-Day Weather Forecast

Advertisements
Track Severe Weather on mobile